Time;durP1;ratioP1;P1;durP2;ratioP2;P2;SDS_P1;SDS_P2;PMS_P1;PMS_P2;Temp;Humidity;BMP_temperature;BMP_pressure;BME280_temperature;BME280_humidity;BME280_pressure;Samples;Min_cycle;Max_cycle;Signal;HPM_P1;HPM_P2
2021/09/03 00:01:43;;;;;;;4.25;1.90;;;;;;;10.81;84.50;99675.41;1770674;81;21882;-77
2021/09/03 00:04:49;;;;;;;6.67;2.30;;;;;;;10.70;84.31;99668.03;1771096;81;21293;-77
2021/09/03 00:07:55;;;;;;;4.67;2.42;;;;;;;10.64;84.20;99678.91;1757556;81;21352;-77
2021/09/03 00:11:02;;;;;;;5.30;2.02;;;;;;;10.56;84.28;99686.70;1739142;81;21187;-77
2021/09/03 00:14:08;;;;;;;16.82;2.47;;;;;;;10.49;84.25;99698.93;1738995;81;21237;-77
2021/09/03 00:17:14;;;;;;;6.70;2.15;;;;;;;10.41;84.45;99700.39;1740577;82;21188;-77
2021/09/03 00:20:20;;;;;;;7.67;2.22;;;;;;;10.33;84.70;99699.64;1739543;82;21321;-78
2021/09/03 00:23:25;;;;;;;7.58;2.00;;;;;;;10.25;84.96;99703.30;1741643;81;21203;-78
2021/09/03 00:26:30;;;;;;;12.05;2.08;;;;;;;10.20;85.11;99700.27;1741622;82;21155;-78
2021/09/03 00:29:36;;;;;;;10.70;2.02;;;;;;;10.15;85.41;99695.88;1739769;81;21330;-78
2021/09/03 00:32:41;;;;;;;3.98;1.80;;;;;;;10.09;85.77;99703.48;1740210;81;21269;-78
2021/09/03 00:35:49;;;;;;;3.98;2.08;;;;;;;10.04;86.01;99695.84;1741753;82;21179;-78
2021/09/03 00:38:54;;;;;;;3.05;1.82;;;;;;;10.00;86.29;99706.81;1740475;82;21903;-78
2021/09/03 00:42:00;;;;;;;3.10;1.77;;;;;;;9.95;86.56;99692.87;1740682;82;21317;-78
2021/09/03 00:45:07;;;;;;;6.40;1.80;;;;;;;9.90;86.76;99694.80;1739002;82;21212;-77
2021/09/03 00:48:13;;;;;;;7.58;2.10;;;;;;;9.85;87.06;99703.22;1740851;82;21809;-78
2021/09/03 00:51:20;;;;;;;5.12;1.98;;;;;;;9.81;87.34;99695.91;1740549;82;21305;-78
2021/09/03 00:54:25;;;;;;;7.35;1.75;;;;;;;9.76;87.56;99714.74;1740694;82;21179;-77
2021/09/03 00:57:32;;;;;;;5.75;2.33;;;;;;;9.71;87.88;99704.89;1740654;82;21349;-77
2021/09/03 01:00:38;;;;;;;4.30;1.65;;;;;;;9.66;88.23;99716.38;1739408;82;21310;-77
2021/09/03 01:03:44;;;;;;;3.72;1.60;;;;;;;9.64;88.42;99716.21;1740747;82;21905;-77
2021/09/03 01:06:50;;;;;;;5.00;2.05;;;;;;;9.62;88.64;99721.02;1740705;82;21195;-77
2021/09/03 01:09:56;;;;;;;3.17;1.75;;;;;;;9.60;88.71;99731.30;1739944;82;21218;-77
2021/09/03 01:13:02;;;;;;;6.00;2.00;;;;;;;9.56;88.86;99725.34;1740521;82;21262;-77
2021/09/03 01:16:07;;;;;;;6.20;1.50;;;;;;;9.55;89.01;99720.05;1740280;82;21258;-77
2021/09/03 01:19:12;;;;;;;6.35;1.85;;;;;;;9.53;89.11;99719.39;1740577;82;21838;-77
2021/09/03 01:22:17;;;;;;;4.22;1.80;;;;;;;9.51;89.25;99718.22;1746389;81;21352;-77
2021/09/03 01:25:23;;;;;;;6.42;1.70;;;;;;;9.50;89.35;99726.58;1772033;81;21792;-77
2021/09/03 01:28:28;;;;;;;3.47;1.90;;;;;;;9.47;89.43;99734.63;1771153;81;21725;-77
2021/09/03 01:31:34;;;;;;;12.60;1.72;;;;;;;9.43;89.58;99736.02;1769614;79;21239;-77
2021/09/03 01:34:39;;;;;;;4.55;1.95;;;;;;;9.40;89.85;99730.92;1777844;80;21284;-77
2021/09/03 01:37:45;;;;;;;2.75;1.87;;;;;;;9.39;90.02;99740.15;1779457;80;21224;-78
2021/09/03 01:40:50;;;;;;;4.70;1.70;;;;;;;9.36;89.97;99738.65;1778412;80;21299;-77
2021/09/03 01:43:57;;;;;;;3.95;1.70;;;;;;;9.34;90.04;99743.42;1777888;80;21283;-78
2021/09/03 01:47:02;;;;;;;3.35;1.32;;;;;;;9.33;90.12;99743.09;1778405;79;21307;-78
2021/09/03 01:50:08;;;;;;;3.30;2.25;;;;;;;9.30;90.14;99750.27;1778948;80;21354;-78
2021/09/03 01:53:13;;;;;;;12.10;1.77;;;;;;;9.25;90.22;99747.24;1779403;80;21819;-77
2021/09/03 01:56:20;;;;;;;2.98;1.80;;;;;;;9.22;90.34;99744.87;1779524;80;21291;-77
2021/09/03 01:59:25;;;;;;;3.72;1.82;;;;;;;9.19;90.44;99747.98;1777982;80;21801;-77
2021/09/03 02:02:30;;;;;;;7.60;1.50;;;;;;;9.15;90.54;99750.21;1778668;79;21331;-77
2021/09/03 02:05:36;;;;;;;3.35;1.72;;;;;;;9.12;90.68;99753.81;1779471;80;21292;-77
2021/09/03 02:08:42;;;;;;;4.53;1.90;;;;;;;9.11;90.78;99753.48;1777882;80;21184;-77
2021/09/03 02:11:48;;;;;;;9.28;1.95;;;;;;;9.07;90.93;99758.95;1778181;80;21331;-77
2021/09/03 02:14:54;;;;;;;9.03;1.77;;;;;;;9.04;91.02;99768.89;1779481;80;22584;-77
2021/09/03 02:18:01;;;;;;;3.87;1.82;;;;;;;9.02;91.18;99777.75;1778372;79;21196;-77
2021/09/03 02:21:07;;;;;;;7.85;1.65;;;;;;;8.99;91.30;99786.27;1778571;80;21299;-77
2021/09/03 02:24:13;;;;;;;2.52;1.37;;;;;;;8.96;91.43;99788.86;1779584;80;21300;-77
2021/09/03 02:27:20;;;;;;;8.53;1.75;;;;;;;8.92;91.53;99791.09;1779338;80;21363;-77
2021/09/03 02:30:25;;;;;;;9.95;1.35;;;;;;;8.88;91.69;99789.74;1764323;80;21827;-77
2021/09/03 02:33:31;;;;;;;3.83;1.50;;;;;;;8.85;91.85;99783.30;1775756;79;21743;-77
2021/09/03 02:36:36;;;;;;;4.75;1.55;;;;;;;8.83;92.04;99792.67;1769611;81;21287;-77
2021/09/03 02:39:42;;;;;;;1.67;1.40;;;;;;;8.79;92.26;99794.90;1769830;81;21300;-77
2021/09/03 02:42:48;;;;;;;3.45;1.72;;;;;;;8.79;92.51;99798.14;1769729;81;21823;-77
2021/09/03 02:45:55;;;;;;;4.45;1.60;;;;;;;8.80;92.62;99799.35;1769838;80;21244;-77
2021/09/03 02:49:02;;;;;;;5.03;1.62;;;;;;;8.78;92.70;99803.27;1770871;79;21328;-77
2021/09/03 02:52:08;;;;;;;3.00;1.40;;;;;;;8.77;92.75;99807.03;1770033;81;21376;-77
2021/09/03 02:55:14;;;;;;;2.42;1.45;;;;;;;8.75;92.85;99818.13;1770151;81;21313;-77
2021/09/03 02:58:19;;;;;;;2.42;1.50;;;;;;;8.75;92.99;99811.79;1769701;81;21845;-77
2021/09/03 03:01:24;;;;;;;2.75;1.35;;;;;;;8.74;93.06;99814.19;1769464;81;21749;-77
2021/09/03 03:04:30;;;;;;;5.20;1.57;;;;;;;8.72;93.16;99817.09;1769389;81;21287;-78
2021/09/03 03:07:35;;;;;;;9.55;1.82;;;;;;;8.72;93.23;99818.98;1771048;81;21327;-78
2021/09/03 03:10:41;;;;;;;2.60;1.47;;;;;;;8.72;93.28;99828.01;1770996;81;21335;-78
2021/09/03 03:13:49;;;;;;;6.00;1.40;;;;;;;8.70;93.32;99822.73;1771011;81;21173;-78
2021/09/03 03:16:54;;;;;;;3.30;1.62;;;;;;;8.73;93.32;99825.61;1764215;81;21323;-78
2021/09/03 03:20:02;;;;;;;4.67;1.80;;;;;;;8.75;93.30;99826.79;1771008;81;21292;-78
2021/09/03 03:23:08;;;;;;;3.02;1.22;;;;;;;8.78;93.24;99834.63;1755083;81;21309;-77
2021/09/03 03:26:13;;;;;;;5.50;1.62;;;;;;;8.80;93.17;99836.16;1742801;81;21712;-77
2021/09/03 03:29:18;;;;;;;4.83;1.40;;;;;;;8.85;93.07;99846.55;1705205;84;21307;-77
2021/09/03 03:32:24;;;;;;;2.33;1.35;;;;;;;8.91;92.87;99847.20;1739737;82;21335;-77
2021/09/03 03:35:30;;;;;;;6.08;1.60;;;;;;;8.96;92.61;99860.63;1710206;82;21767;-77
2021/09/03 03:38:35;;;;;;;2.47;1.30;;;;;;;9.00;92.34;99846.66;1732907;81;21822;-77
2021/09/03 03:41:41;;;;;;;4.00;1.32;;;;;;;9.06;92.17;99862.30;1764980;81;21928;-77
2021/09/03 03:44:47;;;;;;;3.75;1.57;;;;;;;9.11;91.97;99866.70;1771323;81;21288;-77
2021/09/03 03:47:52;;;;;;;1.98;1.17;;;;;;;9.16;91.74;99867.02;1770969;81;21284;-77
2021/09/03 03:50:58;;;;;;;1.60;1.30;;;;;;;9.22;91.51;99869.03;1770421;81;21311;-77
2021/09/03 03:54:05;;;;;;;2.33;1.30;;;;;;;9.31;91.36;99879.39;1742940;81;21659;-77
2021/09/03 03:57:10;;;;;;;2.22;1.27;;;;;;;9.39;91.10;99872.02;1740347;82;21301;-77
2021/09/03 04:00:16;;;;;;;2.50;1.30;;;;;;;9.48;90.80;99881.02;1741386;80;21249;-77
2021/09/03 04:03:21;;;;;;;4.62;1.40;;;;;;;9.58;90.34;99898.53;1704216;84;21397;-77
2021/09/03 04:06:28;;;;;;;2.50;1.25;;;;;;;9.67;89.77;99900.19;1740064;82;21495;-77
2021/09/03 04:09:34;;;;;;;9.85;1.30;;;;;;;9.75;89.12;99896.05;1704879;84;21850;-77
2021/09/03 04:12:40;;;;;;;1.62;1.30;;;;;;;9.82;88.76;99897.00;1740031;82;21220;-77
2021/09/03 04:15:46;;;;;;;2.22;1.20;;;;;;;9.91;88.49;99902.73;1705421;82;21826;-77
2021/09/03 04:18:51;;;;;;;7.10;1.27;;;;;;;10.02;88.16;99908.80;1742358;81;21319;-77
2021/09/03 04:21:56;;;;;;;4.95;1.50;;;;;;;10.10;87.46;99908.23;1704627;84;21624;-77
2021/09/03 04:25:03;;;;;;;2.75;1.10;;;;;;;10.18;86.92;99912.27;1748228;81;21234;-77
2021/09/03 04:28:10;;;;;;;3.27;1.20;;;;;;;10.28;86.57;99916.16;1751422;81;21296;-77
2021/09/03 04:31:15;;;;;;;2.33;1.30;;;;;;;10.35;86.04;99919.86;1758740;81;21859;-77
2021/09/03 04:34:22;;;;;;;2.35;1.22;;;;;;;10.44;85.79;99929.69;1755258;81;21220;-77
2021/09/03 04:37:28;;;;;;;4.33;1.30;;;;;;;10.49;84.91;99921.78;1750995;79;21314;-77
2021/09/03 04:40:33;;;;;;;7.95;1.27;;;;;;;10.56;84.56;99931.97;1752808;80;21279;-78
2021/09/03 04:43:41;;;;;;;4.00;1.10;;;;;;;10.65;84.55;99922.66;1766669;80;21189;-77
2021/09/03 04:46:48;;;;;;;1.45;1.17;;;;;;;10.75;84.09;99933.65;1733368;80;21299;-77
2021/09/03 04:49:56;;;;;;;3.42;1.50;;;;;;;10.85;83.64;99937.48;1772609;80;21237;-78
2021/09/03 04:53:02;;;;;;;1.60;1.25;;;;;;;10.93;83.00;99925.09;1758893;79;21228;-78
2021/09/03 04:56:07;;;;;;;2.80;1.30;;;;;;;11.01;82.79;99937.84;1747600;82;21322;-78
2021/09/03 04:59:13;;;;;;;2.50;1.02;;;;;;;11.04;81.74;99930.60;1777080;80;21362;-79
2021/09/03 05:02:19;;;;;;;3.10;1.30;;;;;;;11.09;82.08;99940.46;1771581;79;21168;-79
2021/09/03 05:05:25;;;;;;;3.42;1.40;;;;;;;11.18;82.44;99944.80;1766562;79;21841;-80
2021/09/03 05:08:31;;;;;;;2.50;1.35;;;;;;;11.30;82.16;99951.19;1771317;80;21271;-80
2021/09/03 05:11:36;;;;;;;3.10;1.25;;;;;;;11.39;81.22;99948.69;1769480;79;21799;-80
2021/09/03 05:14:42;;;;;;;6.08;1.67;;;;;;;11.48;80.76;99960.71;1767940;80;21312;-80
2021/09/03 05:17:51;;;;;;;2.65;1.20;;;;;;;11.55;80.50;99969.00;1766371;79;21352;-80
2021/09/03 05:20:57;;;;;;;3.10;1.35;;;;;;;11.63;80.10;99966.69;1763899;79;21968;-78
2021/09/03 05:24:01;;;;;;;1.65;1.12;;;;;;;11.71;79.92;99970.14;1762568;80;21243;-80
2021/09/03 05:27:08;;;;;;;1.60;1.15;;;;;;;11.82;79.90;99974.34;1762472;80;21177;-80
2021/09/03 05:30:18;;;;;;;3.40;1.30;;;;;;;11.93;78.45;99975.72;1744857;80;21224;-80
2021/09/03 05:33:36;;;;;;;6.50;1.50;;;;;;;12.02;77.88;99980.04;1746586;79;21191;-78
2021/09/03 05:36:46;;;;;;;2.50;1.20;;;;;;;12.09;77.05;99991.06;1766159;80;21294;-79
2021/09/03 05:39:52;;;;;;;2.30;1.10;;;;;;;12.15;76.81;99988.94;1767415;79;21291;-78
2021/09/03 05:42:59;;;;;;;3.52;1.30;;;;;;;12.23;76.73;100003.88;1758845;79;21208;-78
2021/09/03 05:46:03;;;;;;;2.12;1.22;;;;;;;12.29;75.97;100005.86;1709560;82;21188;-79
2021/09/03 05:49:11;;;;;;;1.67;1.07;;;;;;;12.33;75.82;100000.31;1704638;83;21519;-79
2021/09/03 05:52:22;;;;;;;3.52;1.32;;;;;;;12.42;75.71;100005.12;1677851;83;21248;-79
2021/09/03 05:55:36;;;;;;;2.80;1.40;;;;;;;12.48;75.74;100018.08;1633695;83;21252;-78
2021/09/03 05:58:45;;;;;;;5.55;1.27;;;;;;;12.54;74.97;100014.02;1665664;81;21767;-79
2021/09/03 06:01:52;;;;;;;5.62;1.37;;;;;;;12.62;75.07;100017.69;1691979;83;21236;-78
2021/09/03 06:04:58;;;;;;;5.60;1.20;;;;;;;12.71;74.32;100016.51;1706974;83;21217;-79
2021/09/03 06:08:04;;;;;;;3.58;1.20;;;;;;;12.81;74.17;100027.15;1727988;82;21184;-78
2021/09/03 06:11:12;;;;;;;1.55;0.98;;;;;;;12.94;73.82;100014.91;1728381;80;21188;-78
2021/09/03 06:14:20;;;;;;;2.12;1.00;;;;;;;13.05;71.93;100024.81;1724508;82;22340;-78
2021/09/03 06:17:27;;;;;;;4.20;1.40;;;;;;;13.10;70.55;100030.23;1718037;81;21326;-79
2021/09/03 06:24:43;;;;;;;4.80;1.15;;;;;;;13.19;70.99;100036.75;1718099;82;21175;-79
2021/09/03 06:27:48;;;;;;;2.22;1.15;;;;;;;13.29;70.72;100044.14;1729822;82;21175;-78
2021/09/03 06:30:55;;;;;;;2.50;1.05;;;;;;;13.40;69.31;100052.34;1703852;83;21205;-78
2021/09/03 06:34:01;;;;;;;2.15;0.90;;;;;;;13.46;68.32;100047.96;1686687;82;21229;-79
2021/09/03 06:37:07;;;;;;;4.28;1.20;;;;;;;13.53;68.48;100070.29;1730311;82;21593;-78
2021/09/03 06:40:13;;;;;;;3.45;1.50;;;;;;;13.61;66.17;100058.30;1689091;82;22288;-78
2021/09/03 06:43:20;;;;;;;2.12;1.10;;;;;;;13.70;66.53;100063.11;1763707;79;21322;-79
2021/09/03 06:46:25;;;;;;;7.45;1.10;;;;;;;13.83;66.71;100078.28;1724435;80;21204;-79
2021/09/03 06:49:33;;;;;;;4.85;1.12;;;;;;;13.92;65.87;100048.19;1762105;79;21866;-82
2021/09/03 06:52:39;;;;;;;6.50;0.90;;;;;;;13.99;64.91;100068.86;1762787;79;21164;-79
2021/09/03 06:55:44;;;;;;;8.13;1.17;;;;;;;14.08;62.99;100070.39;1774726;79;21188;-79
2021/09/03 06:59:34;;;;;;;2.47;1.02;;;;;;;14.16;62.31;100084.47;1779577;80;21744;-81
2021/09/03 07:02:40;;;;;;;2.95;0.95;;;;;;;14.25;62.42;100077.73;1766755;79;21334;-80
2021/09/03 07:05:46;;;;;;;2.77;1.20;;;;;;;14.35;61.60;100075.47;1728105;80;21531;-78
2021/09/03 07:08:57;;;;;;;4.92;0.80;;;;;;;14.51;61.67;100088.88;1764507;79;21761;-78
2021/09/03 07:12:03;;;;;;;2.52;0.90;;;;;;;14.68;59.55;100082.47;1762791;79;21559;-79
2021/09/03 07:15:09;;;;;;;3.25;0.82;;;;;;;14.82;58.56;100099.34;1762549;79;21389;-79
2021/09/03 07:18:18;;;;;;;1.30;0.80;;;;;;;14.86;56.90;100102.49;1752887;79;21202;-80
2021/09/03 07:21:27;;;;;;;2.37;0.82;;;;;;;14.85;57.89;100093.92;1727982;80;21183;-79
2021/09/03 07:24:33;;;;;;;1.62;0.80;;;;;;;14.91;57.86;100112.35;1725782;80;21184;-78
2021/09/03 07:27:38;;;;;;;4.25;0.90;;;;;;;14.93;55.17;100092.36;1764708;79;21274;-80
2021/09/03 07:30:44;;;;;;;1.37;0.60;;;;;;;14.98;55.99;100099.98;1768801;79;21283;-79
2021/09/03 07:33:54;;;;;;;6.12;1.00;;;;;;;15.06;56.44;100092.38;1767453;79;21813;-78
2021/09/03 07:36:59;;;;;;;2.08;0.70;;;;;;;15.22;55.03;100084.73;1761061;79;21294;-78
2021/09/03 07:40:05;;;;;;;1.15;0.70;;;;;;;15.19;54.71;100109.41;1767615;79;21175;-80
2021/09/03 07:43:13;;;;;;;5.08;0.72;;;;;;;15.15;53.84;100093.52;1763918;79;21797;-79
2021/09/03 07:46:22;;;;;;;0.95;0.70;;;;;;;15.19;53.40;100103.06;1749588;79;21160;-79
2021/09/03 07:49:31;;;;;;;1.35;0.68;;;;;;;15.21;52.33;100100.96;1762919;79;21165;-79
2021/09/03 07:52:38;;;;;;;1.05;0.80;;;;;;;15.28;52.45;100092.15;1772133;79;21315;-79
2021/09/03 07:55:46;;;;;;;3.70;0.82;;;;;;;15.36;53.19;100113.14;1767294;79;21159;-80
2021/09/03 07:58:52;;;;;;;1.75;0.90;;;;;;;15.38;50.22;100111.85;1768028;79;21125;-79
2021/09/03 08:01:58;;;;;;;1.85;0.70;;;;;;;15.45;48.45;100096.71;1763125;79;21332;-78
2021/09/03 08:05:05;;;;;;;3.95;0.60;;;;;;;15.57;47.84;100100.49;1768356;79;21188;-79
2021/09/03 08:08:12;;;;;;;5.78;0.60;;;;;;;15.68;48.92;100093.00;1765123;79;21276;-79
2021/09/03 08:11:18;;;;;;;2.05;0.60;;;;;;;15.76;46.80;100090.53;1727430;80;21171;-78
2021/09/03 08:14:26;;;;;;;1.72;0.65;;;;;;;15.81;46.84;100101.25;1695556;83;21185;-78
2021/09/03 08:17:38;;;;;;;1.55;0.57;;;;;;;15.89;45.19;100090.50;1704148;83;21220;-79
2021/09/03 08:20:45;;;;;;;2.75;0.60;;;;;;;16.01;45.83;100100.34;1701778;83;21159;-79
2021/09/03 08:23:50;;;;;;;2.33;0.65;;;;;;;16.15;46.84;100097.02;1700557;83;21236;-78
2021/09/03 08:26:56;;;;;;;1.75;0.90;;;;;;;16.19;46.88;100103.80;1703047;83;22108;-79
2021/09/03 08:30:35;;;;;;;1.47;0.82;;;;;;;16.19;45.72;100091.38;1706487;83;21198;-79
2021/09/03 08:33:50;;;;;;;2.12;0.93;;;;;;;16.27;44.01;100087.81;1724448;80;21176;-79
2021/09/03 08:36:58;;;;;;;0.68;0.68;;;;;;;16.35;42.86;100093.63;1699966;82;21220;-78
2021/09/03 08:40:11;;;;;;;1.62;0.60;;;;;;;16.44;42.44;100113.02;1706515;81;22041;-79
2021/09/03 08:43:29;;;;;;;1.80;0.70;;;;;;;16.42;41.38;100097.22;1654904;83;21197;-79
2021/09/03 08:46:49;;;;;;;3.27;0.75;;;;;;;16.43;41.76;100096.16;1699959;82;21327;-79
2021/09/03 08:50:07;;;;;;;1.57;0.80;;;;;;;16.53;41.83;100110.33;1656489;82;21221;-79
2021/09/03 08:53:24;;;;;;;3.95;0.82;;;;;;;16.58;42.17;100098.62;1696449;82;21336;-79
2021/09/03 08:56:36;;;;;;;3.55;0.62;;;;;;;16.49;42.37;100097.18;1691718;82;22297;-79
2021/09/03 08:59:48;;;;;;;3.80;0.95;;;;;;;16.44;43.17;100096.45;1693986;82;21209;-79
2021/09/03 09:03:18;;;;;;;3.40;0.93;;;;;;;16.52;41.09;100098.13;1703153;82;21299;-78
2021/09/03 09:06:36;;;;;;;0.93;0.50;;;;;;;16.59;41.66;100095.63;1698310;82;21389;-79
2021/09/03 09:09:52;;;;;;;0.82;0.70;;;;;;;16.66;40.94;100094.23;1712833;81;21614;-79
2021/09/03 09:13:02;;;;;;;2.00;0.80;;;;;;;16.66;40.22;100085.95;1715414;81;21215;-79
2021/09/03 09:16:13;;;;;;;2.67;0.50;;;;;;;16.61;40.93;100090.75;1692947;81;21205;-78
2021/09/03 09:19:21;;;;;;;1.47;0.62;;;;;;;16.60;41.40;100089.03;1713734;81;21255;-78
2021/09/03 09:22:27;;;;;;;1.95;0.78;;;;;;;16.66;41.28;100085.10;1715196;81;21212;-78
2021/09/03 09:25:39;;;;;;;1.10;0.50;;;;;;;16.71;40.41;100086.66;1710803;81;21251;-79
2021/09/03 09:28:48;;;;;;;3.22;0.70;;;;;;;16.73;39.46;100092.83;1710172;81;21287;-79
2021/09/03 09:31:59;;;;;;;0.90;0.70;;;;;;;16.81;40.97;100096.72;1713030;81;21642;-78
2021/09/03 09:35:06;;;;;;;4.92;0.70;;;;;;;16.92;38.72;100089.62;1707776;81;21161;-78
2021/09/03 09:38:16;;;;;;;1.50;0.70;;;;;;;16.95;39.19;100087.80;1711976;81;21487;-78
2021/09/03 09:41:25;;;;;;;1.75;0.57;;;;;;;17.03;39.38;100089.77;1683511;83;21187;-79
2021/09/03 09:44:41;;;;;;;4.10;1.00;;;;;;;17.19;38.24;100093.05;1640187;84;21270;-80
2021/09/03 09:47:50;;;;;;;0.85;0.70;;;;;;;17.34;37.89;100101.30;1681773;83;21192;-80
2021/09/03 09:50:59;;;;;;;1.62;0.90;;;;;;;17.41;37.33;100107.30;1688220;83;21090;-78
2021/09/03 09:54:19;;;;;;;1.80;0.80;;;;;;;17.34;37.92;100110.13;1692531;83;21197;-79
2021/09/03 09:57:28;;;;;;;2.60;0.60;;;;;;;17.24;38.12;100102.88;1684517;83;21189;-77
2021/09/03 10:00:35;;;;;;;0.93;0.70;;;;;;;17.21;38.25;100094.50;1687158;83;21322;-78
2021/09/03 10:03:45;;;;;;;0.98;0.53;;;;;;;17.36;38.38;100109.36;1692025;83;21394;-79
2021/09/03 10:06:54;;;;;;;2.72;0.82;;;;;;;17.54;37.13;100106.64;1688232;83;21938;-78
2021/09/03 10:10:01;;;;;;;1.75;0.70;;;;;;;17.65;37.12;100107.84;1692166;83;21205;-78
2021/09/03 10:13:06;;;;;;;1.55;0.70;;;;;;;17.68;37.26;100109.30;1687040;83;21189;-81
2021/09/03 10:16:18;;;;;;;0.80;0.60;;;;;;;17.59;37.21;100119.25;1688795;83;21164;-79
2021/09/03 10:19:30;;;;;;;5.45;0.80;;;;;;;17.51;36.61;100114.03;1686600;83;21759;-80
2021/09/03 10:22:37;;;;;;;1.12;0.60;;;;;;;17.53;36.70;100106.88;1691052;83;21736;-80
2021/09/03 10:26:00;;;;;;;1.27;0.40;;;;;;;17.67;36.56;100098.77;1686637;83;21252;-79
2021/09/03 10:29:29;;;;;;;2.25;0.90;;;;;;;17.83;36.50;100096.84;1687739;83;21905;-81
2021/09/03 10:32:51;;;;;;;3.67;1.10;;;;;;;18.03;36.45;100106.30;1687219;83;21300;-77
2021/09/03 10:35:58;;;;;;;2.05;1.07;;;;;;;18.11;34.96;100114.31;1688338;83;21216;-80
2021/09/03 10:39:04;;;;;;;3.20;1.30;;;;;;;18.09;35.14;100108.69;1684786;83;21290;-79
2021/09/03 10:42:10;;;;;;;2.77;1.00;;;;;;;18.19;34.87;100117.83;1677242;82;21858;-78
2021/09/03 10:45:27;;;;;;;3.98;1.25;;;;;;;18.33;33.92;100109.67;1731982;82;21869;-79
2021/09/03 10:48:32;;;;;;;7.35;1.30;;;;;;;18.42;34.47;100108.83;1726462;82;21518;-79
2021/09/03 10:51:43;;;;;;;3.50;1.67;;;;;;;18.33;35.06;100105.52;1683465;82;22365;-78
2021/09/03 10:54:48;;;;;;;9.10;1.50;;;;;;;18.18;34.41;100106.45;1729459;81;21302;-79
2021/09/03 10:58:06;;;;;;;2.50;1.30;;;;;;;18.09;34.97;100114.22;1690111;83;22287;-79
2021/09/03 11:01:31;;;;;;;6.30;1.22;;;;;;;18.10;34.83;100109.83;1719241;81;21321;-79
2021/09/03 11:04:39;;;;;;;3.47;1.42;;;;;;;18.22;34.82;100107.69;1731006;82;21336;-79
2021/09/03 11:07:53;;;;;;;3.12;1.30;;;;;;;18.34;34.81;100098.90;1684156;82;21238;-80
2021/09/03 11:10:59;;;;;;;7.10;1.50;;;;;;;18.35;34.64;100094.53;1727075;82;22127;-78
2021/09/03 11:14:19;;;;;;;3.05;1.10;;;;;;;18.36;34.46;100098.14;1727000;82;21243;-80
2021/09/03 11:17:27;;;;;;;4.80;0.80;;;;;;;18.32;33.86;100089.99;1727662;82;21965;-82
2021/09/03 11:20:33;;;;;;;1.57;1.00;;;;;;;18.27;34.88;100082.92;1729402;82;21220;-79
2021/09/03 11:23:47;;;;;;;2.40;1.32;;;;;;;18.17;34.60;100085.40;1725076;82;21381;-79
2021/09/03 11:27:02;;;;;;;1.85;1.17;;;;;;;18.10;35.17;100095.14;1720589;82;21176;-79
2021/09/03 11:30:19;;;;;;;2.77;1.00;;;;;;;18.04;34.79;100095.53;1713522;82;21150;-79
2021/09/03 11:33:27;;;;;;;1.20;0.80;;;;;;;17.94;34.78;100091.08;1689870;82;21574;-81
2021/09/03 11:36:55;;;;;;;6.33;0.80;;;;;;;17.84;35.57;100089.39;1730504;82;21809;-78
2021/09/03 11:40:04;;;;;;;1.55;0.80;;;;;;;17.95;35.71;100092.77;1729085;82;21184;-79
2021/09/03 11:43:12;;;;;;;6.28;1.00;;;;;;;18.08;34.73;100086.24;1719896;82;21781;-78
2021/09/03 11:46:25;;;;;;;4.25;0.80;;;;;;;18.14;34.95;100090.30;1705987;81;21307;-78
2021/09/03 11:49:33;;;;;;;4.45;0.60;;;;;;;18.16;34.81;100080.91;1704399;81;21644;-79
2021/09/03 11:52:42;;;;;;;1.57;0.80;;;;;;;18.19;34.96;100082.69;1705202;81;21652;-78
2021/09/03 11:55:53;;;;;;;1.67;0.70;;;;;;;18.17;34.81;100081.25;1701975;81;21213;-77
2021/09/03 11:58:56;;;;;;;;;;;;;;;18.09;34.68;100090.69;1708869;81;21185;-80
2021/09/03 12:02:12;;;;;;;0.88;0.53;;;;;;;18.04;35.04;100073.94;1706090;81;20491;-81
2021/09/03 12:05:26;;;;;;;2.10;0.72;;;;;;;18.00;35.13;100072.16;1702344;82;21192;-79
2021/09/03 12:08:37;;;;;;;5.40;0.90;;;;;;;18.04;34.99;100076.70;1701093;81;21182;-80
2021/09/03 12:11:45;;;;;;;1.20;0.75;;;;;;;18.20;34.45;100071.08;1701322;83;22166;-79
2021/09/03 12:15:02;;;;;;;2.83;0.70;;;;;;;18.35;33.81;100059.92;1704275;81;21188;-80
2021/09/03 12:18:08;;;;;;;0.72;0.62;;;;;;;18.45;34.51;100074.59;1707014;83;22352;-80
2021/09/03 12:21:27;;;;;;;2.37;0.70;;;;;;;18.45;33.62;100069.05;1688851;82;22123;-80
2021/09/03 12:24:32;;;;;;;8.05;0.80;;;;;;;18.26;34.07;100062.70;1700139;81;21589;-80
2021/09/03 12:27:38;;;;;;;1.85;0.70;;;;;;;18.03;34.19;100068.11;1700218;83;21256;-80
2021/09/03 12:30:44;;;;;;;0.47;0.45;;;;;;;17.91;34.59;100062.48;1705919;83;21283;-80
2021/09/03 12:33:57;;;;;;;0.80;0.70;;;;;;;17.87;34.63;100066.77;1712235;82;21382;-82
2021/09/03 12:37:06;;;;;;;1.27;0.72;;;;;;;17.83;34.75;100065.03;1706436;82;22518;-79
2021/09/03 12:40:18;;;;;;;0.98;0.50;;;;;;;17.83;35.06;100062.77;1724996;82;21590;-81
2021/09/03 12:43:24;;;;;;;1.00;0.60;;;;;;;17.91;35.80;100063.86;1725575;81;21933;-80
2021/09/03 12:46:31;;;;;;;1.95;0.72;;;;;;;17.96;34.57;100064.55;1717382;81;21715;-79
2021/09/03 12:49:43;;;;;;;2.08;0.75;;;;;;;17.92;34.94;100061.39;1682900;82;22291;-78
2021/09/03 12:52:51;;;;;;;6.53;0.75;;;;;;;17.86;35.24;100055.41;1732050;82;21180;-78
2021/09/03 12:55:58;;;;;;;0.80;0.60;;;;;;;17.83;35.52;100061.39;1684002;82;21193;-79
2021/09/03 12:59:05;;;;;;;2.92;0.60;;;;;;;17.80;35.39;100054.95;1732844;82;21176;-79
2021/09/03 13:07:36;;;;;;;1.87;1.30;;;;;;;17.70;36.21;100049.08;1839196;76;28132;-78
2021/09/03 13:10:42;;;;;;;3.52;1.70;;;;;;;17.66;36.12;100059.75;1759619;80;21164;-79
2021/09/03 13:13:50;;;;;;;1.42;1.05;;;;;;;17.68;35.74;100057.59;1765094;80;21299;-79
2021/09/03 13:16:58;;;;;;;3.40;1.42;;;;;;;17.75;36.26;100045.12;1785733;79;21302;-79
2021/09/03 13:20:10;;;;;;;3.37;1.25;;;;;;;17.85;35.95;100050.95;1770567;80;21180;-79
2021/09/03 13:23:16;;;;;;;2.50;1.37;;;;;;;17.97;35.19;100049.09;1787862;79;21198;-80
2021/09/03 13:26:25;;;;;;;2.85;1.10;;;;;;;18.10;35.50;100054.47;1724824;80;21219;-80
2021/09/03 13:29:32;;;;;;;1.50;1.20;;;;;;;18.22;35.05;100048.17;1715506;80;21167;-80
2021/09/03 13:32:36;;;;;;;1.75;1.22;;;;;;;18.28;35.24;100051.39;1766440;79;21156;-80
2021/09/03 13:35:44;;;;;;;3.67;1.20;;;;;;;18.26;34.66;100050.79;1769991;80;21280;-80
2021/09/03 13:38:51;;;;;;;5.25;1.22;;;;;;;18.13;35.10;100055.95;1754322;80;21149;-80
2021/09/03 13:41:56;;;;;;;4.65;1.37;;;;;;;18.10;35.93;100051.70;1757809;80;21278;-80
2021/09/03 13:45:02;;;;;;;1.80;1.30;;;;;;;18.12;35.20;100052.88;1759641;80;21188;-80
2021/09/03 13:48:07;;;;;;;2.33;1.37;;;;;;;18.21;35.38;100052.00;1757684;80;21675;-80
2021/09/03 13:51:13;;;;;;;4.50;1.67;;;;;;;18.32;35.89;100041.00;1728756;82;21534;-80
2021/09/03 13:54:18;;;;;;;1.32;0.93;;;;;;;18.42;35.25;100042.37;1752606;82;21284;-79
2021/09/03 13:57:24;;;;;;;5.78;1.12;;;;;;;18.46;35.40;100047.75;1751964;82;21248;-80
2021/09/03 14:00:29;;;;;;;1.82;1.10;;;;;;;18.44;35.44;100045.19;1742729;82;21224;-80
2021/09/03 14:03:37;;;;;;;0.82;0.80;;;;;;;18.36;35.43;100049.69;1739828;82;21220;-79
2021/09/03 14:06:44;;;;;;;15.08;1.70;;;;;;;18.28;35.32;100037.00;1746601;82;21236;-78
2021/09/03 14:09:49;;;;;;;1.35;1.00;;;;;;;18.22;35.86;100035.17;1736471;82;21816;-78
2021/09/03 14:12:54;;;;;;;3.17;0.80;;;;;;;18.20;35.56;100036.47;1734973;82;21260;-78
2021/09/03 14:16:00;;;;;;;1.37;1.02;;;;;;;18.09;35.74;100036.73;1803371;79;21204;-78
2021/09/03 14:19:06;;;;;;;2.35;0.98;;;;;;;17.96;36.29;100042.41;1760237;81;21196;-78
2021/09/03 14:22:13;;;;;;;1.92;1.17;;;;;;;17.84;36.61;100049.27;1771402;79;21172;-78
2021/09/03 14:25:18;;;;;;;3.33;1.32;;;;;;;17.77;36.77;100044.34;1795130;79;21162;-78
2021/09/03 14:28:24;;;;;;;1.50;0.85;;;;;;;17.73;36.41;100034.77;1767974;81;21391;-78
2021/09/03 14:31:32;;;;;;;1.05;0.72;;;;;;;17.73;36.30;100033.39;1769463;81;21300;-78
2021/09/03 14:34:37;;;;;;;2.72;1.45;;;;;;;17.74;36.16;100040.66;1769460;81;21304;-79
2021/09/03 14:37:43;;;;;;;0.75;0.75;;;;;;;17.77;36.22;100041.03;1767792;81;21276;-78
2021/09/03 14:40:49;;;;;;;2.50;1.07;;;;;;;17.79;36.40;100045.81;1758961;81;21871;-78
2021/09/03 14:43:55;;;;;;;2.75;1.22;;;;;;;17.76;36.47;100044.03;1769970;81;21134;-78
2021/09/03 14:47:00;;;;;;;1.12;0.82;;;;;;;17.73;36.42;100042.56;1770343;81;21848;-78
2021/09/03 14:50:05;;;;;;;3.05;0.70;;;;;;;17.71;35.80;100035.55;1775963;79;21284;-78
2021/09/03 14:53:10;;;;;;;2.50;0.93;;;;;;;17.70;35.70;100038.02;1790438;79;21339;-78